Time;durP1;ratioP1;P1;durP2;ratioP2;P2;SDS_P1;SDS_P2;PMS_P1;PMS_P2;Temp;Humidity;BMP_temperature;BMP_pressure;BME280_temperature;BME280_humidity;BME280_pressure;Samples;Min_cycle;Max_cycle;Signal;HPM_P1;HPM_P2
2022/05/21 00:01:54;;;;;;;3.78;1.17;;;;;;;16.18;84.89;100294.28;5052969;28;20113;-73
2022/05/21 00:04:22;;;;;;;3.80;1.27;;;;;;;16.09;85.02;100284.47;5050421;28;20049;-72
2022/05/21 00:06:49;;;;;;;3.03;1.25;;;;;;;16.11;83.42;100282.50;5049200;28;20056;-71
2022/05/21 00:09:18;;;;;;;1.85;1.20;;;;;;;16.04;83.44;100355.72;5079380;28;20070;-70
2022/05/21 00:11:46;;;;;;;4.38;1.40;;;;;;;16.01;83.25;100308.19;5054106;28;20036;-71
2022/05/21 00:14:13;;;;;;;2.25;1.30;;;;;;;15.96;82.87;100286.50;5029808;28;20036;-71
2022/05/21 00:16:40;;;;;;;2.47;1.40;;;;;;;15.95;83.26;100308.72;5065099;28;20135;-70
2022/05/21 00:19:08;;;;;;;5.03;1.13;;;;;;;15.90;83.72;100300.34;5066975;28;20529;-69
2022/05/21 00:21:35;;;;;;;1.23;1.10;;;;;;;15.85;83.72;100313.13;5075081;28;20063;-70
2022/05/21 00:24:03;;;;;;;3.60;1.30;;;;;;;15.85;83.14;100339.69;5060206;28;20056;-69
2022/05/21 00:26:30;;;;;;;5.82;1.40;;;;;;;15.83;82.57;100310.63;5073869;28;20493;-69
2022/05/21 00:28:58;;;;;;;1.92;1.35;;;;;;;15.82;81.97;100318.72;5056103;28;20048;-71
2022/05/21 00:31:26;;;;;;;3.58;1.48;;;;;;;15.80;82.18;100320.66;5061410;28;20303;-70
2022/05/21 00:33:53;;;;;;;4.07;1.48;;;;;;;15.79;81.49;100340.22;5053841;28;20055;-68
2022/05/21 00:36:21;;;;;;;10.63;1.40;;;;;;;15.78;81.53;100339.38;5074330;28;20564;-71
2022/05/21 00:38:48;;;;;;;3.40;1.40;;;;;;;15.79;81.32;100335.75;5074354;28;20062;-70
2022/05/21 00:41:17;;;;;;;4.20;1.33;;;;;;;15.78;81.74;100370.38;5070710;28;21111;-70
2022/05/21 00:43:59;;;;;;;2.70;1.30;;;;;;;15.77;82.19;100352.78;5042688;28;20048;-70
2022/05/21 00:46:31;;;;;;;5.55;1.38;;;;;;;15.76;81.92;100357.25;5038310;28;20414;-70
2022/05/21 00:49:05;;;;;;;3.78;1.48;;;;;;;15.72;81.44;100400.09;5054038;28;20523;-70
2022/05/21 00:51:37;;;;;;;4.03;1.77;;;;;;;15.72;80.43;100344.38;5048062;28;20041;-69
2022/05/21 00:54:05;;;;;;;2.40;1.55;;;;;;;15.66;81.23;100367.78;5066902;28;20032;-69
2022/05/21 00:56:35;;;;;;;3.00;1.30;;;;;;;15.66;81.47;100362.47;5048096;28;20052;-70
2022/05/21 01:01:53;;;;;;;2.15;1.40;;;;;;;15.57;81.50;100380.94;5064122;28;20533;-69
2022/05/21 01:04:20;;;;;;;1.70;1.38;;;;;;;15.47;81.88;100375.56;5049105;28;20060;-69
2022/05/21 01:06:48;;;;;;;1.73;1.17;;;;;;;15.43;82.13;100408.63;5047671;28;20048;-70
2022/05/21 01:09:15;;;;;;;2.83;1.60;;;;;;;15.40;81.99;100387.66;5052472;28;20060;-70
2022/05/21 01:11:43;;;;;;;4.65;1.63;;;;;;;15.35;82.67;100405.75;5056161;28;20489;-70
2022/05/21 01:14:11;;;;;;;6.15;1.95;;;;;;;15.28;82.52;100415.22;5057020;28;20153;-70
2022/05/21 01:16:39;;;;;;;4.70;2.03;;;;;;;15.25;82.73;100415.44;5056183;28;20079;-70
2022/05/21 01:19:09;;;;;;;2.20;1.58;;;;;;;15.22;83.12;100426.31;5058647;28;20961;-70
2022/05/21 01:21:37;;;;;;;3.15;1.83;;;;;;;15.13;83.16;100434.06;5074299;28;20052;-70
2022/05/21 01:24:06;;;;;;;2.60;1.48;;;;;;;15.03;82.83;100427.78;5070699;28;20528;-70
2022/05/21 01:26:34;;;;;;;7.55;1.83;;;;;;;14.98;83.03;100435.28;5058953;28;20048;-70
2022/05/21 01:29:04;;;;;;;2.80;1.40;;;;;;;14.97;83.36;100448.66;5068186;28;20421;-70
2022/05/21 01:31:34;;;;;;;4.95;1.77;;;;;;;14.94;82.88;100434.66;5053964;28;20359;-70
2022/05/21 01:34:01;;;;;;;3.90;1.70;;;;;;;14.86;82.91;100471.56;5037354;28;20055;-69
2022/05/21 01:36:29;;;;;;;2.38;1.40;;;;;;;14.81;82.03;100460.47;5071322;28;20090;-70
2022/05/21 01:38:56;;;;;;;3.95;1.40;;;;;;;14.75;82.10;100476.88;5068838;28;20158;-69
2022/05/21 01:41:27;;;;;;;1.40;1.30;;;;;;;14.72;82.21;100463.00;5028740;28;20059;-70
2022/05/21 01:46:41;;;;;;;2.25;1.15;;;;;;;14.64;83.15;100458.34;5068509;28;20414;-70
2022/05/21 01:49:08;;;;;;;4.28;1.50;;;;;;;14.62;83.39;100479.63;5057843;28;20078;-70
2022/05/21 01:51:36;;;;;;;1.50;1.38;;;;;;;14.59;83.77;100471.94;5072116;28;20395;-70
2022/05/21 01:54:04;;;;;;;2.75;1.50;;;;;;;14.56;83.17;100472.16;5073744;28;20048;-70
2022/05/21 01:56:31;;;;;;;5.07;1.30;;;;;;;14.49;83.56;100484.19;5063243;28;20048;-70
2022/05/21 01:58:59;;;;;;;2.72;1.40;;;;;;;14.43;83.10;100482.00;5072805;28;20448;-70
2022/05/21 02:01:26;;;;;;;2.72;1.33;;;;;;;14.42;83.28;100496.22;5030131;28;20044;-70
2022/05/21 02:03:53;;;;;;;1.98;1.20;;;;;;;14.36;84.00;100481.63;5046045;28;20379;-70
2022/05/21 02:06:21;;;;;;;3.78;1.67;;;;;;;14.33;84.24;100481.03;5069273;28;20059;-70
2022/05/21 02:08:48;;;;;;;4.00;1.38;;;;;;;14.31;84.44;100486.41;5027906;28;20575;-70
2022/05/21 02:11:16;;;;;;;2.13;1.73;;;;;;;14.32;85.03;100514.63;5054505;28;20056;-70
2022/05/21 02:13:43;;;;;;;2.67;1.77;;;;;;;14.33;85.23;100500.41;5034700;28;20057;-71
2022/05/21 02:16:11;;;;;;;2.08;1.33;;;;;;;14.34;85.58;100503.88;5026919;28;20057;-71
2022/05/21 02:18:38;;;;;;;4.65;2.00;;;;;;;14.32;85.13;100527.84;5052487;28;20041;-71
2022/05/21 02:21:07;;;;;;;3.35;1.67;;;;;;;14.29;85.45;100532.53;5077081;28;20056;-71
2022/05/21 02:23:34;;;;;;;4.13;1.88;;;;;;;14.27;86.00;100521.19;5052286;28;20594;-71
2022/05/21 02:26:03;;;;;;;2.28;1.55;;;;;;;14.23;85.93;100522.38;5057209;28;20044;-71
2022/05/21 02:28:30;;;;;;;3.50;1.83;;;;;;;14.22;85.94;100523.34;5072310;28;20376;-71
2022/05/21 02:30:58;;;;;;;4.03;1.58;;;;;;;14.17;85.11;100529.84;5065983;28;20052;-71
2022/05/21 02:33:26;;;;;;;4.40;1.90;;;;;;;14.16;85.21;100535.25;5039394;28;20055;-71
2022/05/21 02:35:54;;;;;;;4.13;1.52;;;;;;;14.16;84.27;100522.84;5065770;28;20059;-71
2022/05/21 02:41:15;;;;;;;4.05;1.70;;;;;;;14.18;83.78;100549.22;5066973;28;20044;-71
2022/05/21 02:43:43;;;;;;;3.03;1.63;;;;;;;14.20;83.89;100549.94;5052553;28;20056;-70
2022/05/21 02:46:11;;;;;;;1.95;1.45;;;;;;;14.17;84.40;100553.66;5071697;28;20048;-71
2022/05/21 02:48:39;;;;;;;2.08;1.50;;;;;;;14.15;84.02;100574.13;5052259;28;20045;-71
2022/05/21 02:51:08;;;;;;;3.35;1.50;;;;;;;14.08;83.67;100554.34;5051421;28;20053;-70
2022/05/21 02:53:36;;;;;;;4.38;1.40;;;;;;;14.12;83.84;100547.03;5037409;28;20048;-70
2022/05/21 02:56:05;;;;;;;3.78;1.38;;;;;;;14.11;84.04;100562.06;5043380;28;20053;-70
2022/05/21 02:58:32;;;;;;;2.88;1.60;;;;;;;14.14;84.15;100568.97;5050959;28;20096;-71
2022/05/21 03:01:00;;;;;;;5.90;1.50;;;;;;;14.14;84.22;100568.97;5062255;28;20907;-70
2022/05/21 03:03:27;;;;;;;2.20;1.58;;;;;;;14.09;84.15;100616.91;5045398;28;20049;-70
2022/05/21 03:05:57;;;;;;;3.70;2.05;;;;;;;14.06;82.72;100579.28;5060042;28;20050;-70
2022/05/21 03:11:10;;;;;;;;;;;;;;;13.93;83.08;100582.81;5054823;28;20119;-70
2022/05/21 03:13:39;;;;;;;4.15;1.85;;;;;;;13.91;81.91;100600.63;5032531;28;19926;-70
2022/05/21 03:16:06;;;;;;;6.07;1.77;;;;;;;13.87;82.06;100612.38;5047802;28;20053;-70
2022/05/21 03:18:35;;;;;;;4.47;2.00;;;;;;;13.78;82.04;100602.47;5067125;28;20534;-70
2022/05/21 03:21:02;;;;;;;4.88;1.85;;;;;;;13.78;82.22;100601.59;5069600;28;20060;-70
2022/05/21 03:23:30;;;;;;;4.38;1.73;;;;;;;13.79;82.54;100603.31;5057439;28;20051;-70
2022/05/21 03:25:57;;;;;;;6.78;1.70;;;;;;;13.73;82.64;100614.31;5068949;28;20126;-69
2022/05/21 03:28:24;;;;;;;2.88;2.10;;;;;;;13.68;82.65;100606.72;5068883;28;20056;-70
2022/05/21 03:30:52;;;;;;;2.80;2.20;;;;;;;13.65;82.17;100626.31;5044226;28;20045;-69
2022/05/21 03:33:19;;;;;;;3.33;2.10;;;;;;;13.57;81.71;100620.72;5067451;28;20054;-69
2022/05/21 03:35:47;;;;;;;3.20;2.00;;;;;;;13.51;81.79;100625.59;5069490;28;20050;-69
2022/05/21 03:38:14;;;;;;;3.42;2.00;;;;;;;13.47;81.85;100637.38;5070108;28;20055;-69
2022/05/21 03:40:42;;;;;;;3.78;2.15;;;;;;;13.39;81.47;100630.81;5045067;28;20063;-70
2022/05/21 03:43:09;;;;;;;2.72;1.45;;;;;;;13.39;82.28;100640.53;5077310;28;20453;-70
2022/05/21 03:45:37;;;;;;;7.03;1.98;;;;;;;13.31;82.29;100654.28;5055075;28;20058;-69
2022/05/21 03:48:08;;;;;;;5.93;1.67;;;;;;;13.33;82.27;100654.19;5073561;28;20132;-69
2022/05/21 03:50:35;;;;;;;6.70;2.22;;;;;;;13.26;83.13;100651.13;5054611;28;20040;-70
2022/05/21 03:53:03;;;;;;;4.72;1.80;;;;;;;13.23;82.47;100682.22;5072479;28;20750;-69
2022/05/21 03:55:31;;;;;;;4.28;2.20;;;;;;;13.20;82.66;100664.75;5043774;28;20041;-70
2022/05/21 03:57:58;;;;;;;5.40;1.85;;;;;;;13.20;82.33;100688.53;5039118;28;20511;-70
2022/05/21 04:00:26;;;;;;;2.40;1.88;;;;;;;13.21;82.21;100671.72;5056132;28;20541;-70
2022/05/21 04:02:54;;;;;;;3.55;1.98;;;;;;;13.18;81.78;100671.91;5048479;28;20055;-70
2022/05/21 04:05:21;;;;;;;3.90;1.63;;;;;;;13.21;82.59;100668.22;5051355;28;20062;-70
2022/05/21 04:07:49;;;;;;;3.22;1.52;;;;;;;13.14;82.57;100681.84;5076190;28;20057;-70
2022/05/21 04:10:17;;;;;;;1.92;1.50;;;;;;;13.08;82.61;100699.94;5051636;28;20048;-70
2022/05/21 04:12:45;;;;;;;3.08;1.33;;;;;;;13.12;82.16;100704.91;5074831;28;20056;-71
2022/05/21 04:15:13;;;;;;;5.22;1.60;;;;;;;13.12;82.03;100712.00;5071354;28;20067;-71
2022/05/21 04:17:41;;;;;;;3.67;1.45;;;;;;;13.02;81.51;100705.66;5050393;28;20139;-70
2022/05/21 04:20:11;;;;;;;2.85;1.30;;;;;;;13.02;81.56;100698.56;5065325;28;20140;-71
2022/05/21 04:22:39;;;;;;;2.95;1.30;;;;;;;13.04;82.04;100716.97;5057981;28;20055;-71
2022/05/21 04:25:07;;;;;;;4.00;1.95;;;;;;;12.95;81.99;100734.28;5076732;28;20060;-71
2022/05/21 04:27:36;;;;;;;4.10;1.40;;;;;;;13.01;82.00;100725.91;5072028;28;20066;-70
2022/05/21 04:30:05;;;;;;;4.65;1.40;;;;;;;13.05;80.86;100732.69;5025451;28;20078;-71
2022/05/21 04:32:32;;;;;;;2.80;1.40;;;;;;;13.04;80.76;100744.22;5056555;28;20058;-70
2022/05/21 04:35:00;;;;;;;3.08;1.55;;;;;;;12.95;76.47;100763.34;5072379;28;20055;-70
2022/05/21 04:37:28;;;;;;;2.22;1.20;;;;;;;12.90;74.82;100765.44;5064011;28;20047;-70
2022/05/21 04:39:56;;;;;;;2.30;0.93;;;;;;;12.91;74.50;100765.34;5060479;28;20048;-70
2022/05/21 04:42:23;;;;;;;5.63;1.00;;;;;;;12.85;74.71;100771.03;5073327;28;20063;-70
2022/05/21 04:44:50;;;;;;;2.58;1.00;;;;;;;12.88;74.51;100784.06;5072008;28;20047;-70
2022/05/21 04:47:18;;;;;;;4.20;1.05;;;;;;;12.82;73.32;100791.53;5068195;28;20429;-70
2022/05/21 04:49:45;;;;;;;2.55;1.42;;;;;;;12.92;73.30;100779.38;5078343;28;20051;-71
2022/05/21 04:52:13;;;;;;;5.70;1.02;;;;;;;13.01;72.85;100799.91;5072116;28;20541;-71
2022/05/21 04:54:40;;;;;;;3.22;1.33;;;;;;;13.04;72.92;100796.25;5068626;28;20060;-70
2022/05/21 04:57:08;;;;;;;2.42;1.08;;;;;;;13.07;72.54;100794.25;5060821;28;20062;-70
2022/05/21 04:59:36;;;;;;;6.97;1.20;;;;;;;13.12;72.93;100794.78;5075257;28;20048;-70
2022/05/21 05:02:03;;;;;;;5.85;1.20;;;;;;;13.26;72.77;100800.97;5065397;28;20049;-70
2022/05/21 05:04:31;;;;;;;2.35;1.38;;;;;;;13.36;73.36;100808.16;5055309;28;20406;-70
2022/05/21 05:06:58;;;;;;;4.35;1.75;;;;;;;13.33;74.51;100804.91;5070525;28;20052;-71
2022/05/21 05:09:27;;;;;;;3.83;1.52;;;;;;;13.12;74.62;100813.28;5066248;28;20079;-71
2022/05/21 05:11:55;;;;;;;4.97;1.52;;;;;;;13.10;74.58;100803.75;5072688;28;20071;-70
2022/05/21 05:14:22;;;;;;;5.95;1.73;;;;;;;13.11;75.47;100816.03;5078384;28;20052;-71
2022/05/21 05:16:50;;;;;;;3.42;1.80;;;;;;;13.10;75.94;100812.56;5074849;28;20086;-70
2022/05/21 05:19:17;;;;;;;5.38;2.10;;;;;;;13.16;76.09;100814.78;5070296;28;20055;-71
2022/05/21 05:21:45;;;;;;;5.85;1.42;;;;;;;13.21;75.77;100840.06;5071583;28;20062;-70
2022/05/21 05:24:12;;;;;;;5.35;2.05;;;;;;;13.21;75.42;100824.19;5073723;28;20550;-71
2022/05/21 05:26:40;;;;;;;4.70;1.77;;;;;;;13.03;75.78;100837.69;5074100;28;20426;-71
2022/05/21 05:29:09;;;;;;;6.78;2.30;;;;;;;13.02;75.34;100832.50;5074889;28;20059;-71
2022/05/21 05:31:37;;;;;;;5.82;2.63;;;;;;;12.94;76.06;100838.28;5074155;28;20139;-71
2022/05/21 05:38:16;;;;;;;5.30;1.83;;;;;;;12.95;75.59;100836.50;5077120;28;20062;-70
2022/05/21 05:40:46;;;;;;;5.80;2.03;;;;;;;12.84;74.43;100850.41;5071968;28;20045;-71
2022/05/21 05:43:16;;;;;;;5.80;2.17;;;;;;;12.94;74.43;100851.50;5057901;28;20040;-70
2022/05/21 05:45:43;;;;;;;3.35;1.38;;;;;;;13.10;73.56;100843.41;5059525;28;20203;-69
2022/05/21 05:48:11;;;;;;;8.00;1.80;;;;;;;13.24;73.57;100850.44;5057209;28;20048;-69
2022/05/21 05:50:38;;;;;;;5.18;2.17;;;;;;;13.32;73.43;100850.78;5071389;28;20056;-70
2022/05/21 05:53:07;;;;;;;6.53;2.08;;;;;;;13.17;73.25;100855.28;5037595;28;20071;-70
2022/05/21 05:55:35;;;;;;;4.40;1.70;;;;;;;13.05;72.85;100861.34;5044906;28;20115;-70
2022/05/21 06:00:50;;;;;;;2.95;1.55;;;;;;;13.07;73.23;100859.47;5054324;28;20036;-70
2022/05/21 06:03:17;;;;;;;3.85;1.48;;;;;;;13.04;73.36;100865.81;5038624;28;20523;-69
2022/05/21 06:05:45;;;;;;;6.00;1.90;;;;;;;13.18;72.24;100846.38;5075323;28;20044;-69
2022/05/21 06:08:13;;;;;;;5.72;2.10;;;;;;;13.21;72.47;100864.69;5059126;28;20073;-70
2022/05/21 06:10:43;;;;;;;6.50;2.50;;;;;;;13.12;72.16;100871.44;5072512;28;20063;-69
2022/05/21 06:13:10;;;;;;;6.53;2.03;;;;;;;13.12;71.46;100849.44;5058549;28;20513;-69
2022/05/21 06:15:38;;;;;;;4.65;1.95;;;;;;;13.20;71.40;100865.66;5065665;28;20040;-69
2022/05/21 06:18:11;;;;;;;6.55;1.63;;;;;;;13.26;71.05;100873.19;5057070;28;20049;-70
2022/05/21 06:20:39;;;;;;;9.68;2.33;;;;;;;13.55;70.22;100867.75;5071889;28;20048;-70
2022/05/21 06:23:07;;;;;;;5.03;1.55;;;;;;;13.75;69.04;100871.72;5058938;28;20049;-69
2022/05/21 06:25:34;;;;;;;4.43;1.80;;;;;;;13.80;68.82;100866.94;5065847;28;20081;-70
2022/05/21 06:28:03;;;;;;;8.07;2.20;;;;;;;13.69;68.19;100878.28;5034055;28;20048;-70
2022/05/21 06:30:32;;;;;;;7.18;2.33;;;;;;;13.62;68.35;100883.13;5065988;28;20062;-70
2022/05/21 06:33:15;;;;;;;5.30;1.92;;;;;;;13.50;69.11;100875.16;5054156;28;20060;-70
2022/05/21 06:35:42;;;;;;;3.72;2.22;;;;;;;13.64;68.89;100885.66;5058092;28;20735;-69
2022/05/21 06:38:09;;;;;;;6.28;2.10;;;;;;;13.50;68.83;100894.50;5058197;28;20053;-68
2022/05/21 06:40:37;;;;;;;5.40;1.83;;;;;;;13.49;68.25;100887.53;5053464;28;20063;-69
2022/05/21 06:43:05;;;;;;;6.38;2.75;;;;;;;13.38;67.49;100890.91;5070670;28;20064;-69
2022/05/21 06:45:34;;;;;;;7.85;2.05;;;;;;;13.40;68.22;100890.78;5046114;28;20698;-71
2022/05/21 06:48:07;;;;;;;5.05;1.73;;;;;;;13.52;67.20;100891.78;5077008;28;20056;-70
2022/05/21 06:50:35;;;;;;;3.90;1.45;;;;;;;13.57;67.61;100882.59;5065514;28;20461;-72
2022/05/21 06:53:02;;;;;;;9.75;1.70;;;;;;;13.82;67.26;100880.91;5052852;28;20055;-71
2022/05/21 06:55:29;;;;;;;2.85;1.60;;;;;;;13.80;67.81;100890.75;5065154;28;20049;-71
2022/05/21 06:57:57;;;;;;;6.03;1.95;;;;;;;13.82;67.92;100888.84;5052593;28;20040;-72
2022/05/21 07:00:25;;;;;;;4.72;1.88;;;;;;;13.87;68.51;100884.97;5063942;28;20375;-71
2022/05/21 07:02:55;;;;;;;7.28;2.00;;;;;;;14.05;68.81;100885.50;5041941;28;20414;-70
2022/05/21 07:08:16;;;;;;;;;;;;;;;14.08;66.30;100887.91;5074076;28;20052;-70
2022/05/21 07:10:43;;;;;;;3.65;1.40;;;;;;;13.96;65.73;100896.72;5046092;28;20399;-69
2022/05/21 07:13:11;;;;;;;5.50;1.60;;;;;;;13.87;65.68;100927.31;5053685;28;20063;-69
2022/05/21 07:15:38;;;;;;;4.15;1.67;;;;;;;13.86;65.85;100891.19;5064783;28;20056;-70
2022/05/21 07:18:05;;;;;;;3.35;1.25;;;;;;;14.09;65.32;100899.34;5055194;28;20546;-69
2022/05/21 07:20:33;;;;;;;3.10;1.27;;;;;;;14.37;64.80;100901.78;5069162;28;20413;-70
2022/05/21 07:23:00;;;;;;;4.55;1.45;;;;;;;14.60;63.75;100908.13;5060732;28;20048;-70
2022/05/21 07:25:31;;;;;;;3.28;1.63;;;;;;;14.39;64.18;100906.94;5057197;28;20056;-71
2022/05/21 07:27:59;;;;;;;1.95;1.00;;;;;;;14.36;63.60;100885.97;5060378;28;20062;-70
2022/05/21 07:30:28;;;;;;;1.88;0.90;;;;;;;14.40;63.12;100901.53;5054069;28;20056;-70
2022/05/21 07:32:55;;;;;;;4.40;1.35;;;;;;;14.26;63.47;100898.16;5082539;28;20629;-70
2022/05/21 07:35:24;;;;;;;3.80;1.23;;;;;;;14.35;63.15;100903.66;5073419;28;20056;-69
2022/05/21 07:37:52;;;;;;;4.93;1.17;;;;;;;14.43;63.74;100900.50;5077137;28;20051;-70
2022/05/21 07:40:21;;;;;;;5.90;2.08;;;;;;;14.35;63.79;100897.53;5070832;28;20548;-71
2022/05/21 07:42:48;;;;;;;2.33;1.20;;;;;;;14.46;64.52;100888.84;5076598;28;20048;-71
2022/05/21 07:45:19;;;;;;;3.55;1.40;;;;;;;14.67;64.24;100888.16;5068107;28;20058;-71
2022/05/21 07:47:49;;;;;;;2.97;1.20;;;;;;;14.42;65.01;100886.41;5064092;28;20036;-71
2022/05/21 07:50:18;;;;;;;4.80;1.48;;;;;;;14.35;65.92;100879.84;5058301;28;20067;-69
2022/05/21 07:52:45;;;;;;;5.93;1.33;;;;;;;14.62;65.99;100884.16;5055686;28;20056;-70
2022/05/21 07:55:14;;;;;;;25.95;2.17;;;;;;;14.83;65.39;100876.47;5049034;28;20052;-71
2022/05/21 07:57:41;;;;;;;6.70;1.27;;;;;;;15.02;64.73;100873.31;5061863;28;20071;-70
2022/05/21 08:00:10;;;;;;;4.47;1.48;;;;;;;15.11;64.45;100876.13;5079298;28;20051;-71
2022/05/21 08:02:41;;;;;;;3.40;1.60;;;;;;;15.22;65.13;100875.34;5053536;28;20052;-71
2022/05/21 08:05:09;;;;;;;3.58;1.55;;;;;;;15.26;64.45;100871.47;5041354;28;20052;-70
2022/05/21 08:07:36;;;;;;;5.78;1.55;;;;;;;15.45;64.07;100868.31;5079049;28;20060;-71
2022/05/21 08:10:05;;;;;;;3.70;1.77;;;;;;;15.43;64.09;100872.88;5050452;28;20486;-70
2022/05/21 08:12:33;;;;;;;9.48;1.98;;;;;;;15.75;63.28;100873.13;5058217;28;20137;-70
2022/05/21 08:15:00;;;;;;;6.18;1.42;;;;;;;15.58;63.72;100861.13;5055022;28;20136;-70
2022/05/21 08:17:27;;;;;;;6.10;2.25;;;;;;;15.54;64.24;100869.44;5078453;28;20526;-70
2022/05/21 08:19:55;;;;;;;3.28;1.60;;;;;;;15.44;64.54;100859.53;5074583;28;20056;-71
2022/05/21 08:27:59;;;;;;;7.70;1.77;;;;;;;16.03;62.84;100866.53;5075301;28;20055;-70
2022/05/21 08:30:26;;;;;;;7.95;1.73;;;;;;;16.29;62.04;100866.28;5056085;28;20544;-70
2022/05/21 08:33:01;;;;;;;4.22;1.30;;;;;;;16.69;61.39;100877.25;5055703;28;20045;-70
2022/05/21 08:35:28;;;;;;;5.10;1.73;;;;;;;16.87;59.84;100865.16;5031173;28;20048;-72
2022/05/21 08:37:56;;;;;;;6.53;1.52;;;;;;;17.08;59.76;100870.53;5054537;28;20044;-71
2022/05/21 08:40:41;;;;;;;5.13;1.38;;;;;;;16.98;58.55;100856.31;5060086;28;20054;-70
2022/05/21 08:43:16;;;;;;;8.20;1.85;;;;;;;16.98;58.41;100858.13;5062736;28;20052;-70
2022/05/21 08:46:07;;;;;;;4.70;1.48;;;;;;;16.80;59.14;100855.16;5050824;28;20760;-71
2022/05/21 08:48:36;;;;;;;7.38;2.13;;;;;;;16.87;59.44;100865.16;5053840;28;20068;-71
2022/05/21 08:51:08;;;;;;;5.72;1.98;;;;;;;16.46;60.13;100853.34;5070697;28;20059;-71
2022/05/21 08:53:40;;;;;;;7.40;2.28;;;;;;;16.01;62.25;100865.81;5054990;28;20052;-69
2022/05/21 08:56:09;;;;;;;8.88;2.05;;;;;;;15.86;62.71;100859.88;5043078;28;20043;-70
2022/05/21 08:58:53;;;;;;;5.70;1.88;;;;;;;15.63;64.20;100871.38;5069724;28;20064;-71
2022/05/21 09:01:22;;;;;;;5.22;1.77;;;;;;;15.33;66.20;100886.00;5030903;28;20052;-71
2022/05/21 09:03:52;;;;;;;6.35;1.98;;;;;;;15.18;68.72;100895.09;5049120;28;20048;-70
2022/05/21 09:06:19;;;;;;;5.50;2.10;;;;;;;15.03;73.46;100910.31;5052305;28;20507;-70
2022/05/21 09:09:08;;;;;;;5.75;2.47;;;;;;;14.97;76.26;100896.66;5069022;28;20517;-70
2022/05/21 09:11:43;;;;;;;3.33;2.00;;;;;;;14.95;79.10;100907.41;5053478;28;20052;-71
2022/05/21 09:14:15;;;;;;;5.55;2.08;;;;;;;15.00;77.77;100922.97;5049644;28;20066;-71
2022/05/21 09:16:56;;;;;;;5.47;2.30;;;;;;;15.04;76.48;100901.41;5053175;28;20067;-70
2022/05/21 09:19:26;;;;;;;6.40;2.22;;;;;;;15.09;75.82;100914.34;5048434;28;20048;-70
2022/05/21 09:22:01;;;;;;;7.28;2.70;;;;;;;15.47;75.98;100898.22;5052020;28;20064;-70
2022/05/21 09:25:06;;;;;;;;;;;;;;;15.28;73.54;100893.44;5059882;28;20158;-70
2022/05/21 09:27:42;;;;;;;8.55;2.83;;;;;;;15.06;74.22;100896.84;5070487;28;20007;-70
2022/05/21 09:30:26;;;;;;;13.10;3.00;;;;;;;14.92;75.55;100894.34;5074115;28;20041;-70
2022/05/21 09:33:02;;;;;;;5.63;2.38;;;;;;;14.78;76.31;100897.16;5057611;28;20052;-69
2022/05/21 09:35:51;;;;;;;7.60;2.25;;;;;;;14.66;76.15;100897.06;5049181;28;20162;-70
2022/05/21 09:38:24;;;;;;;4.95;3.25;;;;;;;14.67;77.00;100933.22;5047470;28;20047;-70
2022/05/21 09:41:14;;;;;;;6.97;2.63;;;;;;;14.51;76.52;100914.06;5053635;28;20054;-70
2022/05/21 09:46:36;;;;;;;9.32;3.35;;;;;;;14.40;76.21;100906.84;5056079;28;20064;-70
2022/05/21 09:49:28;;;;;;;6.00;2.83;;;;;;;14.77;75.48;100896.31;5030326;28;20060;-70
2022/05/21 09:52:05;;;;;;;5.75;3.15;;;;;;;14.99;74.09;100905.34;5051033;28;20048;-69
2022/05/21 09:54:41;;;;;;;7.05;3.05;;;;;;;15.20;72.85;100906.44;5053235;28;20062;-69
2022/05/21 09:57:20;;;;;;;;;;;;;;;15.38;72.32;100904.22;5046154;28;20054;-69
2022/05/21 10:00:25;;;;;;;7.03;3.40;;;;;;;15.67;70.96;100908.22;5071178;28;20015;-70
2022/05/21 10:02:58;;;;;;;5.65;3.58;;;;;;;15.68;70.60;100907.25;5046227;28;20055;-71
2022/05/21 10:05:39;;;;;;;6.07;4.00;;;;;;;15.45;71.49;100911.63;5053079;28;20144;-69
2022/05/21 10:11:28;;;;;;;7.30;3.95;;;;;;;15.74;71.31;100902.44;5072341;28;20060;-69
2022/05/21 10:14:25;;;;;;;8.25;5.07;;;;;;;15.95;69.32;100906.97;5047996;28;20070;-70
2022/05/21 10:17:06;;;;;;;9.23;4.88;;;;;;;16.14;67.64;100913.50;5048044;28;20059;-70
2022/05/21 10:19:40;;;;;;;10.23;5.28;;;;;;;16.28;67.70;100904.44;5065893;28;20542;-71
2022/05/21 10:22:18;;;;;;;8.40;5.28;;;;;;;16.22;67.12;100889.00;5054203;28;20052;-70
2022/05/21 10:25:13;;;;;;;7.53;5.82;;;;;;;16.58;65.86;100903.84;5073428;28;20052;-70
2022/05/21 10:27:59;;;;;;;9.05;4.78;;;;;;;16.88;65.71;100900.56;5061844;28;20140;-69
2022/05/21 10:31:04;;;;;;;8.20;5.25;;;;;;;16.64;64.14;100892.72;5034980;28;20055;-70
2022/05/21 10:33:55;;;;;;;9.70;5.78;;;;;;;16.41;64.65;100914.00;5063313;28;20040;-70
2022/05/21 10:36:31;;;;;;;12.23;5.80;;;;;;;16.52;63.88;100896.34;5046184;28;20356;-70
2022/05/21 10:39:07;;;;;;;9.90;5.18;;;;;;;16.61;63.97;100877.00;5053843;28;20095;-70
2022/05/21 10:42:01;;;;;;;9.55;5.90;;;;;;;16.86;63.13;100884.75;5049658;28;20072;-70
2022/05/21 10:44:55;;;;;;;13.50;5.57;;;;;;;16.96;62.12;100868.88;5065342;28;20046;-69
2022/05/21 10:47:45;;;;;;;9.93;5.47;;;;;;;17.12;60.84;100879.97;5019618;28;20159;-70
2022/05/21 10:50:40;;;;;;;9.98;5.90;;;;;;;17.59;59.65;100861.81;5070091;28;20052;-70
2022/05/21 10:53:46;;;;;;;7.28;5.28;;;;;;;17.63;59.32;100873.91;5046951;28;20066;-71
2022/05/21 10:56:51;;;;;;;7.38;3.92;;;;;;;17.18;59.21;100863.47;5050978;28;20066;-70
2022/05/21 10:59:45;;;;;;;8.07;4.15;;;;;;;16.75;59.91;100913.16;5063681;28;20586;-71
2022/05/21 11:02:25;;;;;;;5.05;4.15;;;;;;;16.43;61.76;100858.06;5070441;28;20084;-71
2022/05/21 11:04:56;;;;;;;7.03;4.47;;;;;;;16.30;61.71;100860.00;5053672;28;20057;-71
2022/05/21 11:07:46;;;;;;;5.07;4.18;;;;;;;16.02;62.60;100854.22;5077019;28;20058;-71
2022/05/21 11:10:25;;;;;;;7.45;4.30;;;;;;;16.15;62.43;100873.53;5075425;28;20139;-71
2022/05/21 11:13:00;;;;;;;8.20;3.70;;;;;;;16.40;61.53;100892.88;5060827;28;20063;-71
2022/05/21 11:15:47;;;;;;;10.80;4.05;;;;;;;16.56;60.94;100866.75;5055254;28;20413;-69
2022/05/21 11:18:39;;;;;;;6.15;4.47;;;;;;;16.71;60.15;100864.69;5079661;28;20040;-70
2022/05/21 11:21:19;;;;;;;9.30;3.50;;;;;;;16.74;60.39;100853.81;5076234;28;20059;-70
2022/05/21 11:24:02;;;;;;;8.10;3.65;;;;;;;17.23;59.60;100856.94;5054612;28;20053;-70
2022/05/21 11:26:58;;;;;;;6.75;3.55;;;;;;;17.12;58.54;100842.72;5061596;28;20154;-69
2022/05/21 11:29:45;;;;;;;8.45;5.45;;;;;;;16.86;58.96;100839.53;5060183;28;20101;-69
2022/05/21 11:38:16;;;;;;;6.90;3.55;;;;;;;17.46;57.21;100847.84;5068901;28;20086;-71
2022/05/21 11:40:50;;;;;;;;;;;;;;;17.52;57.37;100841.19;5046877;28;20059;-70
2022/05/21 11:43:21;;;;;;;8.15;3.95;;;;;;;17.44;57.52;100852.47;5077625;28;19923;-70
2022/05/21 11:46:11;;;;;;;10.95;3.83;;;;;;;17.43;58.13;100832.16;5055915;28;20083;-70
2022/05/21 11:48:38;;;;;;;8.70;4.32;;;;;;;17.77;57.11;100850.63;5071156;28;20053;-70
2022/05/21 11:51:18;;;;;;;11.13;4.40;;;;;;;17.81;55.33;100882.19;5059003;28;20225;-70
2022/05/21 11:53:46;;;;;;;7.85;3.83;;;;;;;18.14;56.01;100841.13;5067000;28;20048;-72
2022/05/21 11:56:14;;;;;;;8.13;4.57;;;;;;;18.09;54.97;100830.03;5054177;28;20060;-70
2022/05/21 11:58:50;;;;;;;11.15;5.45;;;;;;;17.25;57.36;100821.25;5070298;28;20067;-71
2022/05/21 12:01:35;;;;;;;7.07;4.30;;;;;;;16.96;58.22;100855.56;5065156;28;20066;-70
2022/05/21 12:04:03;;;;;;;10.25;3.72;;;;;;;16.83;58.79;100854.88;5067592;28;20052;-70
2022/05/21 12:06:38;;;;;;;7.55;4.10;;;;;;;16.73;59.59;100838.00;5071447;28;20060;-70
2022/05/21 12:09:31;;;;;;;7.43;3.78;;;;;;;16.66;60.52;100854.44;5054678;28;20052;-69
2022/05/21 12:12:23;;;;;;;7.57;3.58;;;;;;;16.75;60.49;100855.53;5072976;28;20048;-70
2022/05/21 12:14:53;;;;;;;9.88;4.00;;;;;;;16.82;60.27;100855.88;5066288;28;20051;-71
2022/05/21 12:17:44;;;;;;;6.28;3.50;;;;;;;16.70;60.66;100847.03;5074794;28;20153;-70
2022/05/21 12:20:16;;;;;;;7.72;2.90;;;;;;;16.56;59.78;100857.94;5069680;28;20063;-71
2022/05/21 12:22:50;;;;;;;8.18;3.33;;;;;;;16.65;58.70;100855.38;5078468;28;20048;-70
2022/05/21 12:25:46;;;;;;;13.27;3.13;;;;;;;16.70;59.07;100878.94;5054410;28;20107;-71
2022/05/21 12:28:14;;;;;;;9.05;3.80;;;;;;;16.84;58.73;100860.09;5055782;28;20059;-70